Terminal Aerodrome Forecast
Issued by NWS

Home | Current Version | Previous Version | Text Only | Print | Product List | Glossary On
Versions: 1 2 3 4 5 6 7 8 9 10 11 12 13 14 15 16 17 18 19 20 21 22 23 24 25 26 27 28 29 30 31 32 33 34 35 36
000
FTUS43 KDTX 101120
TAFPTK
TAF
KPTK 101120Z 1012/1112 27009KT P6SM SCT025 OVC050
     FM101600 26011KT 6SM -SHSN BKN028 OVC050
      TEMPO 1016/1020 2SM -SHSN BKN022
     FM102100 25009KT P6SM -SHSN SCT035 BKN050
     FM110100 25006KT P6SM SCT035 OVC120
     FM110800 22004KT 3SM -SN BKN028 OVC040=

USA.gov is the U.S. government's official web portal to all federal, state and local government web resources and services.